createdAt,value
2023-01-12T00:00:26.327Z,-3.80
2023-01-12T00:00:59.330Z,-3.90
2023-01-12T00:01:34.186Z,-3.80
2023-01-12T00:02:10.582Z,-3.80
2023-01-12T00:02:45.522Z,-3.80
2023-01-12T00:03:20.048Z,-3.80
2023-01-12T00:03:57.338Z,-3.80
2023-01-12T00:04:31.882Z,-3.80
2023-01-12T00:05:08.150Z,-3.70
2023-01-12T00:05:42.849Z,-3.70
2023-01-12T00:06:16.760Z,-3.70
2023-01-12T00:06:51.602Z,-3.70
2023-01-12T00:07:26.054Z,-3.70
2023-01-12T00:08:01.125Z,-3.70
2023-01-12T00:08:37.531Z,-3.70
2023-01-12T00:09:12.609Z,-3.70
2023-01-12T00:10:01.841Z,-3.70
2023-01-12T00:10:37.673Z,-3.70
2023-01-12T00:11:11.014Z,-3.70
2023-01-12T00:11:45.426Z,-3.70
2023-01-12T00:12:20.817Z,-3.60
2023-01-12T00:12:54.711Z,-3.70
2023-01-12T00:13:29.607Z,-3.60
2023-01-12T00:14:04.863Z,-3.70
2023-01-12T00:14:38.955Z,-3.70
2023-01-12T00:15:13.485Z,-3.70
2023-01-12T00:16:02.133Z,-3.70
2023-01-12T00:16:38.637Z,-3.70
2023-01-12T00:17:17.893Z,-3.70
2023-01-12T00:17:51.882Z,-3.70
2023-01-12T00:18:27.063Z,-3.70
2023-01-12T00:19:01.453Z,-3.70
2023-01-12T00:19:39.327Z,-3.60
2023-01-12T00:20:13.700Z,-3.60
2023-01-12T00:20:49.065Z,-3.60
2023-01-12T00:21:23.132Z,-3.60
2023-01-12T00:22:00.265Z,-3.70
2023-01-12T00:22:36.018Z,-3.70
2023-01-12T00:23:12.919Z,-3.70
2023-01-12T00:23:49.587Z,-3.80
2023-01-12T00:24:24.474Z,-3.80
2023-01-12T00:24:58.650Z,-3.80
2023-01-12T00:25:35.048Z,-3.80
2023-01-12T00:26:10.078Z,-3.80
2023-01-12T00:26:44.731Z,-3.80
2023-01-12T00:27:22.365Z,-3.80
2023-01-12T00:27:57.221Z,-3.80
2023-01-12T00:28:32.301Z,-3.80
2023-01-12T00:29:06.328Z,-3.80
2023-01-12T00:29:42.067Z,-3.80
2023-01-12T00:30:17.436Z,-3.80
2023-01-12T00:30:52.075Z,-3.80
2023-01-12T00:31:26.865Z,-3.80
2023-01-12T00:32:02.663Z,-3.80
2023-01-12T00:32:37.143Z,-3.80
2023-01-12T00:33:12.135Z,-3.80
2023-01-12T00:33:45.653Z,-3.80
2023-01-12T00:34:19.507Z,-3.80
2023-01-12T00:34:53.121Z,-3.80
2023-01-12T00:35:27.039Z,-3.80
2023-01-12T00:36:06.258Z,-3.80
2023-01-12T00:36:40.869Z,-3.80
2023-01-12T00:37:14.837Z,-3.70
2023-01-12T00:37:49.235Z,-3.80
2023-01-12T00:38:22.595Z,-3.80
2023-01-12T00:38:58.243Z,-3.80
2023-01-12T00:39:32.651Z,-3.80
2023-01-12T00:40:10.783Z,-3.80
2023-01-12T00:40:44.488Z,-3.80
2023-01-12T00:41:38.117Z,-3.80
2023-01-12T00:42:31.978Z,-3.80
2023-01-12T00:43:23.571Z,-3.70
2023-01-12T00:44:16.243Z,-3.70
2023-01-12T00:45:08.636Z,-3.70
2023-01-12T00:45:43.740Z,-3.70
2023-01-12T00:46:18.040Z,-3.70
2023-01-12T00:46:51.468Z,-3.70
2023-01-12T00:47:25.577Z,-3.70
2023-01-12T00:47:59.406Z,-3.70
2023-01-12T00:48:34.029Z,-3.70
2023-01-12T00:49:09.620Z,-3.70
2023-01-12T00:49:43.541Z,-3.70
2023-01-12T00:50:19.464Z,-3.70
2023-01-12T00:50:59.488Z,-3.70
2023-01-12T00:51:33.456Z,-3.80
2023-01-12T00:52:09.827Z,-3.80
2023-01-12T00:52:47.467Z,-3.80
2023-01-12T00:53:22.317Z,-3.80
2023-01-12T00:53:57.855Z,-3.80
2023-01-12T00:54:32.733Z,-3.80
2023-01-12T00:55:08.486Z,-3.80
2023-01-12T00:55:42.403Z,-3.80
2023-01-12T00:56:18.268Z,-3.80
2023-01-12T00:56:51.986Z,-3.80
2023-01-12T00:57:25.722Z,-3.80
2023-01-12T00:58:00.948Z,-3.80
2023-01-12T00:58:35.017Z,-3.80
2023-01-12T00:59:09.377Z,-3.80
2023-01-12T00:59:45.285Z,-3.80
2023-01-12T01:00:20.535Z,-3.80
2023-01-12T01:00:54.470Z,-3.80
2023-01-12T01:01:29.388Z,-3.80
2023-01-12T01:02:03.919Z,-3.80
2023-01-12T01:02:37.720Z,-3.80
2023-01-12T01:03:12.492Z,-3.80
2023-01-12T01:03:46.845Z,-3.80
2023-01-12T01:04:20.104Z,-3.80
2023-01-12T01:04:55.116Z,-3.80
2023-01-12T01:05:30.199Z,-3.80
2023-01-12T01:06:05.005Z,-3.80
2023-01-12T01:06:40.541Z,-3.80
2023-01-12T01:07:16.748Z,-3.80
2023-01-12T01:07:51.446Z,-3.80
2023-01-12T01:08:26.113Z,-3.80
2023-01-12T01:09:02.220Z,-3.80
2023-01-12T01:09:37.641Z,-3.80
2023-01-12T01:10:12.544Z,-3.80
2023-01-12T01:10:47.463Z,-3.80
2023-01-12T01:11:20.855Z,-3.90
2023-01-12T01:11:56.360Z,-3.90
2023-01-12T01:12:29.473Z,-3.90
2023-01-12T01:13:03.848Z,-3.90
2023-01-12T01:13:41.281Z,-3.90
2023-01-12T01:14:15.531Z,-3.90
2023-01-12T01:14:50.827Z,-3.90
2023-01-12T01:15:25.584Z,-3.90
2023-01-12T01:16:01.645Z,-3.80
2023-01-12T01:16:37.168Z,-3.80
2023-01-12T01:17:09.942Z,-3.80
2023-01-12T01:17:42.976Z,-3.70
2023-01-12T01:18:17.851Z,-3.70
2023-01-12T01:18:51.928Z,-3.70
2023-01-12T01:19:26.648Z,-3.70
2023-01-12T01:19:59.509Z,-3.70
2023-01-12T01:20:37.087Z,-3.70
2023-01-12T01:21:12.990Z,-3.80
2023-01-12T01:21:46.719Z,-3.80
2023-01-12T01:22:22.208Z,-3.80
2023-01-12T01:22:58.205Z,-3.80
2023-01-12T01:23:35.765Z,-3.80
2023-01-12T01:24:12.783Z,-3.80
2023-01-12T01:24:47.791Z,-3.80
2023-01-12T01:25:22.281Z,-3.80
2023-01-12T01:25:56.309Z,-3.80
2023-01-12T01:26:32.705Z,-3.80
2023-01-12T01:27:06.516Z,-3.80
2023-01-12T01:27:41.424Z,-3.80
2023-01-12T01:28:16.142Z,-3.80
2023-01-12T01:28:51.023Z,-3.70
2023-01-12T01:29:26.557Z,-3.70
2023-01-12T01:30:01.219Z,-3.70
2023-01-12T01:30:34.278Z,-3.70
2023-01-12T01:31:10.924Z,-3.70
2023-01-12T01:31:44.086Z,-3.70
2023-01-12T01:32:18.830Z,-3.70
2023-01-12T01:32:53.327Z,-3.70
2023-01-12T01:33:28.211Z,-3.70
2023-01-12T01:34:02.607Z,-3.70
2023-01-12T01:34:36.510Z,-3.70
2023-01-12T01:35:11.268Z,-3.70
2023-01-12T01:35:47.501Z,-3.70
2023-01-12T01:36:22.342Z,-3.70
2023-01-12T01:36:55.148Z,-3.70
2023-01-12T01:37:31.577Z,-3.70
2023-01-12T01:38:05.169Z,-3.70
2023-01-12T01:38:39.445Z,-3.70
2023-01-12T01:39:15.212Z,-3.80
2023-01-12T01:39:48.339Z,-3.80
2023-01-12T01:40:23.276Z,-3.80
2023-01-12T01:40:57.393Z,-3.80
2023-01-12T01:41:33.182Z,-3.80
2023-01-12T01:42:06.595Z,-3.80
2023-01-12T01:42:42.601Z,-3.80
2023-01-12T01:43:16.533Z,-3.80
2023-01-12T01:43:55.999Z,-3.80
2023-01-12T01:44:54.131Z,-3.80
2023-01-12T01:45:28.561Z,-3.70
2023-01-12T01:46:08.404Z,-3.70
2023-01-12T01:46:49.302Z,-3.70
2023-01-12T01:47:29.248Z,-3.70
2023-01-12T01:48:03.999Z,-3.70
2023-01-12T01:48:41.210Z,-3.80
2023-01-12T01:49:37.200Z,-3.80
2023-01-12T01:50:19.497Z,-3.80
2023-01-12T01:50:57.702Z,-3.80
2023-01-12T01:51:31.474Z,-3.80
2023-01-12T01:52:09.119Z,-3.70
2023-01-12T01:52:46.154Z,-3.70
2023-01-12T01:53:23.111Z,-3.70
2023-01-12T01:54:00.050Z,-3.70
2023-01-12T01:54:40.051Z,-3.60
2023-01-12T01:55:22.869Z,-3.70
2023-01-12T01:56:00.481Z,-3.70
2023-01-12T01:56:34.604Z,-3.80
2023-01-12T01:57:10.908Z,-3.80
2023-01-12T01:57:51.533Z,-3.80
2023-01-12T01:58:30.671Z,-3.80
2023-01-12T01:59:09.585Z,-3.80
2023-01-12T01:59:49.765Z,-3.90
2023-01-12T02:00:25.366Z,-3.90
2023-01-12T02:00:59.572Z,-3.90
2023-01-12T02:01:34.349Z,-3.80
2023-01-12T02:02:09.413Z,-3.80
2023-01-12T02:02:45.404Z,-3.80
2023-01-12T02:03:20.496Z,-3.80
2023-01-12T02:03:58.459Z,-3.80
2023-01-12T02:04:33.320Z,-3.70
2023-01-12T02:05:08.851Z,-3.80
2023-01-12T02:05:46.609Z,-3.80
2023-01-12T02:06:21.608Z,-3.80
2023-01-12T02:06:56.040Z,-3.80
2023-01-12T02:07:30.117Z,-3.80
2023-01-12T02:08:09.088Z,-3.80
2023-01-12T02:08:48.075Z,-3.90
2023-01-12T02:09:24.792Z,-3.90
2023-01-12T02:10:01.221Z,-3.90
2023-01-12T02:10:35.305Z,-3.80
2023-01-12T02:11:29.775Z,-3.80
2023-01-12T02:12:23.888Z,-3.80
2023-01-12T02:13:15.688Z,-3.80
2023-01-12T02:14:08.452Z,-3.70
2023-01-12T02:15:00.907Z,-3.80
2023-01-12T02:16:01.380Z,-3.80
2023-01-12T02:16:42.291Z,-3.80
2023-01-12T02:17:31.690Z,-3.80
2023-01-12T02:18:16.214Z,-3.80
2023-01-12T02:19:13.389Z,-3.80
2023-01-12T02:20:26.892Z,-3.80
2023-01-12T02:21:12.456Z,-3.80
2023-01-12T02:22:36.007Z,-3.80
2023-01-12T02:23:40.393Z,-3.80
2023-01-12T02:24:57.438Z,-3.90
2023-01-12T02:26:01.615Z,-3.90
2023-01-12T02:27:21.528Z,-3.90
2023-01-12T02:28:19.753Z,-3.90
2023-01-12T02:29:24.415Z,-3.80
2023-01-12T02:30:34.382Z,-3.80
2023-01-12T02:31:38.270Z,-3.90
2023-01-12T02:32:19.887Z,-3.90
2023-01-12T02:33:27.228Z,-3.80
2023-01-12T02:34:13.399Z,-3.90
2023-01-12T02:34:55.235Z,-3.90
2023-01-12T02:35:35.066Z,-3.90
2023-01-12T02:36:19.280Z,-3.90
2023-01-12T02:37:00.640Z,-3.90
2023-01-12T02:37:41.246Z,-3.90
2023-01-12T02:38:28.170Z,-3.90
2023-01-12T02:39:11.177Z,-3.90
2023-01-12T02:39:51.547Z,-3.90
2023-01-12T02:40:26.098Z,-3.90
2023-01-12T02:41:07.187Z,-3.90
2023-01-12T02:42:07.399Z,-3.80
2023-01-12T02:42:42.990Z,-3.90
2023-01-12T02:43:23.329Z,-3.80
2023-01-12T02:43:56.848Z,-3.80
2023-01-12T02:44:37.872Z,-3.80
2023-01-12T02:45:24.210Z,-3.80
2023-01-12T02:46:03.964Z,-3.80
2023-01-12T02:46:42.130Z,-3.80
2023-01-12T02:47:23.448Z,-3.90
2023-01-12T02:48:01.837Z,-3.90
2023-01-12T02:48:45.463Z,-3.90
2023-01-12T02:49:24.947Z,-4.00
2023-01-12T02:50:02.596Z,-4.00
2023-01-12T02:50:44.501Z,-4.00
2023-01-12T02:51:27.181Z,-4.10
2023-01-12T02:52:06.648Z,-4.10
2023-01-12T02:52:45.832Z,-4.10
2023-01-12T02:53:23.975Z,-4.10
2023-01-12T02:54:04.665Z,-4.10
2023-01-12T02:54:41.204Z,-4.10
2023-01-12T02:55:16.655Z,-4.10
2023-01-12T02:55:52.425Z,-4.20
2023-01-12T02:56:31.787Z,-4.20
2023-01-12T02:57:10.072Z,-4.20
2023-01-12T02:57:46.018Z,-4.20
2023-01-12T02:58:22.299Z,-4.20
2023-01-12T02:58:58.748Z,-4.20
2023-01-12T02:59:36.614Z,-4.10
2023-01-12T03:00:13.937Z,-4.10
2023-01-12T03:00:51.683Z,-4.10
2023-01-12T03:01:27.058Z,-4.10
2023-01-12T03:02:04.614Z,-4.10
2023-01-12T03:02:38.643Z,-4.10
2023-01-12T03:03:18.011Z,-4.10
2023-01-12T03:03:56.271Z,-4.10
2023-01-12T03:04:33.489Z,-4.10
2023-01-12T03:05:09.154Z,-4.10
2023-01-12T03:05:44.345Z,-4.10
2023-01-12T03:06:19.259Z,-4.10
2023-01-12T03:07:24.722Z,-4.10
2023-01-12T03:08:03.437Z,-4.10
2023-01-12T03:08:40.164Z,-4.00
2023-01-12T03:09:17.365Z,-4.10
2023-01-12T03:09:56.257Z,-4.00
2023-01-12T03:10:43.841Z,-4.00
2023-01-12T03:11:20.933Z,-4.00
2023-01-12T03:12:02.925Z,-4.10
2023-01-12T03:12:39.461Z,-4.10
2023-01-12T03:13:16.763Z,-4.00
2023-01-12T03:13:54.877Z,-4.00
2023-01-12T03:14:31.599Z,-4.00
2023-01-12T03:15:11.552Z,-4.10
2023-01-12T03:15:52.044Z,-4.10
2023-01-12T03:16:30.243Z,-4.10
2023-01-12T03:17:11.120Z,-4.10
2023-01-12T03:17:49.094Z,-4.00
2023-01-12T03:18:32.105Z,-4.00
2023-01-12T03:19:10.281Z,-4.00
2023-01-12T03:19:47.319Z,-4.00
2023-01-12T03:20:26.728Z,-4.00
2023-01-12T03:21:08.743Z,-4.00
2023-01-12T03:21:48.828Z,-4.00
2023-01-12T03:22:23.836Z,-4.00
2023-01-12T03:23:03.399Z,-4.00
2023-01-12T03:23:43.078Z,-3.90
2023-01-12T03:24:21.169Z,-3.90
2023-01-12T03:24:59.390Z,-3.90
2023-01-12T03:25:36.647Z,-3.90
2023-01-12T03:26:12.888Z,-3.80
2023-01-12T03:26:50.091Z,-3.80
2023-01-12T03:27:28.907Z,-3.70
2023-01-12T03:28:07.514Z,-3.70
2023-01-12T03:28:46.444Z,-3.80
2023-01-12T03:29:29.803Z,-3.80
2023-01-12T03:30:08.750Z,-3.80
2023-01-12T03:30:45.842Z,-3.80
2023-01-12T03:31:21.653Z,-3.80
2023-01-12T03:31:55.255Z,-3.80
2023-01-12T03:32:30.701Z,-3.80
2023-01-12T03:33:06.380Z,-3.80
2023-01-12T03:33:40.836Z,-3.80
2023-01-12T03:34:15.430Z,-3.90
2023-01-12T03:34:49.076Z,-3.80
2023-01-12T03:35:27.801Z,-3.90
2023-01-12T03:36:12.470Z,-3.90
2023-01-12T03:36:55.401Z,-3.90
2023-01-12T03:37:33.150Z,-3.90
2023-01-12T03:38:13.745Z,-3.90
2023-01-12T03:38:56.213Z,-3.90
2023-01-12T03:39:38.077Z,-3.90
2023-01-12T03:40:15.293Z,-3.90
2023-01-12T03:40:56.971Z,-3.90
2023-01-12T03:41:43.339Z,-3.80
2023-01-12T03:42:24.496Z,-3.90
2023-01-12T03:43:05.520Z,-3.90
2023-01-12T03:43:44.550Z,-3.80
2023-01-12T03:44:25.247Z,-3.80
2023-01-12T03:45:11.629Z,-3.80
2023-01-12T03:45:50.055Z,-3.80
2023-01-12T03:46:27.822Z,-3.80
2023-01-12T03:47:06.030Z,-3.80
2023-01-12T03:47:44.139Z,-3.80
2023-01-12T03:48:22.509Z,-3.80
2023-01-12T03:49:03.886Z,-3.80
2023-01-12T03:49:43.999Z,-3.90
2023-01-12T03:50:21.193Z,-3.90
2023-01-12T03:51:01.003Z,-3.90
2023-01-12T03:51:38.106Z,-3.90
2023-01-12T03:52:13.659Z,-3.90
2023-01-12T03:52:47.883Z,-3.90
2023-01-12T03:53:22.927Z,-3.90
2023-01-12T03:53:59.568Z,-3.90
2023-01-12T03:54:36.251Z,-3.80
2023-01-12T03:55:13.304Z,-3.80
2023-01-12T03:55:52.373Z,-3.80
2023-01-12T03:56:29.438Z,-3.80
2023-01-12T03:57:03.946Z,-3.80
2023-01-12T03:57:40.339Z,-3.70
2023-01-12T03:58:13.784Z,-3.70
2023-01-12T03:58:48.665Z,-3.70
2023-01-12T03:59:24.239Z,-3.70
2023-01-12T03:59:58.243Z,-3.70
2023-01-12T04:00:33.438Z,-3.60
2023-01-12T04:01:07.836Z,-3.60
2023-01-12T04:01:43.963Z,-3.60
2023-01-12T04:02:17.982Z,-3.60
2023-01-12T04:03:03.777Z,-3.60
2023-01-12T04:03:37.976Z,-3.60
2023-01-12T04:04:13.480Z,-3.60
2023-01-12T04:04:46.700Z,-3.60
2023-01-12T04:05:21.129Z,-3.60
2023-01-12T04:05:55.050Z,-3.60
2023-01-12T04:06:28.511Z,-3.60
2023-01-12T04:07:02.891Z,-3.60
2023-01-12T04:07:37.419Z,-3.60
2023-01-12T04:08:13.867Z,-3.60
2023-01-12T04:08:48.577Z,-3.60
2023-01-12T04:09:23.573Z,-3.60
2023-01-12T04:09:57.372Z,-3.70
2023-01-12T04:10:33.556Z,-3.70
2023-01-12T04:11:23.267Z,-3.80
2023-01-12T04:12:11.697Z,-3.80
2023-01-12T04:12:44.905Z,-3.90
2023-01-12T04:13:19.269Z,-3.90
2023-01-12T04:13:53.670Z,-3.90
2023-01-12T04:14:28.068Z,-3.90
2023-01-12T04:15:01.816Z,-3.90
2023-01-12T04:15:42.408Z,-3.90
2023-01-12T04:16:16.368Z,-3.90
2023-01-12T04:16:52.103Z,-4.00
2023-01-12T04:17:26.026Z,-4.00
2023-01-12T04:18:02.026Z,-4.00
2023-01-12T04:18:37.062Z,-4.00
2023-01-12T04:19:11.527Z,-3.90
2023-01-12T04:19:46.396Z,-3.90
2023-01-12T04:20:21.831Z,-4.00
2023-01-12T04:20:56.522Z,-4.00
2023-01-12T04:21:48.749Z,-3.90
2023-01-12T04:22:40.911Z,-3.90
2023-01-12T04:23:15.461Z,-3.90
2023-01-12T04:23:48.800Z,-3.90
2023-01-12T04:24:22.798Z,-3.90
2023-01-12T04:24:57.450Z,-3.90
2023-01-12T04:25:32.315Z,-3.90
2023-01-12T04:26:09.134Z,-3.90
2023-01-12T04:26:44.147Z,-3.90
2023-01-12T04:27:17.244Z,-3.90
2023-01-12T04:27:56.108Z,-3.90
2023-01-12T04:28:31.241Z,-3.90
2023-01-12T04:29:05.942Z,-3.90
2023-01-12T04:29:40.192Z,-3.90
2023-01-12T04:30:16.459Z,-3.90
2023-01-12T04:30:51.416Z,-3.90
2023-01-12T04:31:26.133Z,-3.90
2023-01-12T04:32:00.350Z,-3.90
2023-01-12T04:32:33.304Z,-3.90
2023-01-12T04:33:12.132Z,-3.80
2023-01-12T04:33:47.069Z,-3.90
2023-01-12T04:34:21.290Z,-3.90
2023-01-12T04:34:55.239Z,-3.90
2023-01-12T04:35:30.181Z,-3.90
2023-01-12T04:36:04.699Z,-3.90
2023-01-12T04:36:41.925Z,-3.90
2023-01-12T04:37:16.180Z,-3.90
2023-01-12T04:37:51.514Z,-3.90
2023-01-12T04:38:26.447Z,-3.90
2023-01-12T04:39:00.165Z,-4.00
2023-01-12T04:39:34.629Z,-4.00
2023-01-12T04:40:11.201Z,-4.00
2023-01-12T04:40:45.580Z,-4.00
2023-01-12T04:41:23.724Z,-3.90
2023-01-12T04:41:56.928Z,-3.90
2023-01-12T04:42:51.198Z,-3.90
2023-01-12T04:43:26.173Z,-3.90
2023-01-12T04:44:01.001Z,-3.90
2023-01-12T04:44:57.815Z,-3.90
2023-01-12T04:45:37.853Z,-3.90
2023-01-12T04:46:11.361Z,-3.90
2023-01-12T04:46:45.795Z,-3.90
2023-01-12T04:47:19.957Z,-3.90
2023-01-12T04:47:57.229Z,-3.90
2023-01-12T04:48:34.952Z,-3.90
2023-01-12T04:49:11.106Z,-3.90
2023-01-12T04:49:47.928Z,-3.90
2023-01-12T04:50:24.220Z,-3.90
2023-01-12T04:51:02.066Z,-3.90
2023-01-12T04:51:46.239Z,-3.90
2023-01-12T04:52:19.803Z,-3.90
2023-01-12T04:52:56.727Z,-3.90
2023-01-12T04:53:31.002Z,-3.90
2023-01-12T04:54:08.318Z,-3.80
2023-01-12T04:55:11.109Z,-3.80
2023-01-12T04:55:47.515Z,-3.80
2023-01-12T04:56:23.091Z,-3.70
2023-01-12T04:56:59.688Z,-3.70
2023-01-12T04:57:35.523Z,-3.70
2023-01-12T04:58:11.317Z,-3.70
2023-01-12T04:58:48.735Z,-3.70
2023-01-12T04:59:23.410Z,-3.70
2023-01-12T04:59:59.166Z,-3.70
2023-01-12T05:00:37.680Z,-3.70
2023-01-12T05:01:22.889Z,-3.70
2023-01-12T05:01:56.272Z,-3.70
2023-01-12T05:02:35.501Z,-3.80
2023-01-12T05:03:12.359Z,-3.80
2023-01-12T05:03:50.125Z,-3.80
2023-01-12T05:04:26.681Z,-3.80
2023-01-12T05:05:05.982Z,-3.90
2023-01-12T05:05:39.937Z,-3.90
2023-01-12T05:06:15.169Z,-3.90
2023-01-12T05:06:49.276Z,-3.90
2023-01-12T05:07:24.098Z,-3.90
2023-01-12T05:08:18.700Z,-3.90
2023-01-12T05:09:10.831Z,-3.90
2023-01-12T05:10:03.000Z,-4.00
2023-01-12T05:10:37.219Z,-4.00
2023-01-12T05:11:11.775Z,-4.00
2023-01-12T05:11:45.953Z,-4.00
2023-01-12T05:12:19.316Z,-4.10
2023-01-12T05:12:54.231Z,-4.10
2023-01-12T05:13:30.225Z,-4.10
2023-01-12T05:14:04.223Z,-4.10
2023-01-12T05:14:38.293Z,-4.10
2023-01-12T05:15:15.651Z,-4.10
2023-01-12T05:15:49.594Z,-4.10
2023-01-12T05:16:23.900Z,-4.10
2023-01-12T05:17:00.220Z,-4.10
2023-01-12T05:17:34.113Z,-4.10
2023-01-12T05:18:08.201Z,-4.20
2023-01-12T05:18:43.068Z,-4.10
2023-01-12T05:19:18.139Z,-4.20
2023-01-12T05:19:51.273Z,-4.20
2023-01-12T05:20:26.705Z,-4.20
2023-01-12T05:21:05.203Z,-4.20
2023-01-12T05:21:38.057Z,-4.20
2023-01-12T05:22:11.889Z,-4.20
2023-01-12T05:22:44.930Z,-4.20
2023-01-12T05:23:20.519Z,-4.20
2023-01-12T05:23:57.055Z,-4.20
2023-01-12T05:24:32.170Z,-4.20
2023-01-12T05:25:06.718Z,-4.20
2023-01-12T05:25:43.717Z,-4.20
2023-01-12T05:26:17.150Z,-4.20
2023-01-12T05:26:50.518Z,-4.10
2023-01-12T05:27:28.963Z,-4.20
2023-01-12T05:28:02.724Z,-4.20
2023-01-12T05:28:36.938Z,-4.20
2023-01-12T05:29:14.620Z,-4.20
2023-01-12T05:29:48.668Z,-4.20
2023-01-12T05:30:24.923Z,-4.20
2023-01-12T05:31:05.816Z,-4.20
2023-01-12T05:31:39.994Z,-4.20
2023-01-12T05:32:15.375Z,-4.30
2023-01-12T05:32:49.411Z,-4.30
2023-01-12T05:33:23.786Z,-4.30
2023-01-12T05:33:58.264Z,-4.30
2023-01-12T05:34:33.735Z,-4.30
2023-01-12T05:35:09.161Z,-4.30
2023-01-12T05:35:43.801Z,-4.30
2023-01-12T05:36:18.666Z,-4.30
2023-01-12T05:36:51.459Z,-4.30
2023-01-12T05:37:27.127Z,-4.30
2023-01-12T05:38:01.355Z,-4.30
2023-01-12T05:38:36.885Z,-4.30
2023-01-12T05:39:11.633Z,-4.30
2023-01-12T05:39:46.147Z,-4.30
2023-01-12T05:40:19.548Z,-4.30
2023-01-12T05:40:55.204Z,-4.30
2023-01-12T05:41:29.611Z,-4.30
2023-01-12T05:42:22.328Z,-4.30
2023-01-12T05:43:15.195Z,-4.30
2023-01-12T05:43:51.853Z,-4.30
2023-01-12T05:44:25.209Z,-4.40
2023-01-12T05:45:01.160Z,-4.40
2023-01-12T05:45:35.665Z,-4.40
2023-01-12T05:46:10.699Z,-4.40
2023-01-12T05:46:45.808Z,-4.40
2023-01-12T05:47:19.860Z,-4.30
2023-01-12T05:47:58.174Z,-4.40
2023-01-12T05:48:33.554Z,-4.40
2023-01-12T05:49:08.409Z,-4.40
2023-01-12T05:49:43.586Z,-4.40
2023-01-12T05:50:20.059Z,-4.40
2023-01-12T05:51:13.603Z,-4.50
2023-01-12T05:51:49.082Z,-4.50
2023-01-12T05:52:22.899Z,-4.50
2023-01-12T05:52:57.657Z,-4.50
2023-01-12T05:53:32.622Z,-4.50
2023-01-12T05:54:08.350Z,-4.50
2023-01-12T05:54:41.737Z,-4.50
2023-01-12T05:55:16.104Z,-4.50
2023-01-12T05:55:49.134Z,-4.50
2023-01-12T05:56:26.281Z,-4.50
2023-01-12T05:57:02.345Z,-4.50
2023-01-12T05:57:36.951Z,-4.50
2023-01-12T05:58:11.427Z,-4.50
2023-01-12T05:58:49.959Z,-4.50
2023-01-12T05:59:23.999Z,-4.50
2023-01-12T05:59:58.817Z,-4.40
2023-01-12T06:00:33.227Z,-4.40
2023-01-12T06:01:11.256Z,-4.40
2023-01-12T06:01:44.832Z,-4.50
2023-01-12T06:02:22.213Z,-4.50
2023-01-12T06:02:57.056Z,-4.50
2023-01-12T06:03:32.615Z,-4.50
2023-01-12T06:04:06.600Z,-4.50
2023-01-12T06:04:42.910Z,-4.60
2023-01-12T06:05:19.597Z,-4.50
2023-01-12T06:05:56.100Z,-4.50
2023-01-12T06:06:32.074Z,-4.50
2023-01-12T06:07:05.894Z,-4.50
2023-01-12T06:07:39.764Z,-4.50
2023-01-12T06:08:14.734Z,-4.60
2023-01-12T06:08:50.684Z,-4.60
2023-01-12T06:09:26.561Z,-4.50
2023-01-12T06:10:01.641Z,-4.50
2023-01-12T06:10:37.155Z,-4.50
2023-01-12T06:11:31.527Z,-4.50
2023-01-12T06:12:24.966Z,-4.50
2023-01-12T06:13:17.821Z,-4.40
2023-01-12T06:13:58.832Z,-4.40
2023-01-12T06:14:33.367Z,-4.50
2023-01-12T06:15:08.651Z,-4.50
2023-01-12T06:15:43.024Z,-4.50
2023-01-12T06:16:17.475Z,-4.50
2023-01-12T06:16:51.282Z,-4.40
2023-01-12T06:17:24.714Z,-4.40
2023-01-12T06:17:59.603Z,-4.40
2023-01-12T06:18:37.087Z,-4.40
2023-01-12T06:19:12.824Z,-4.40
2023-01-12T06:19:47.620Z,-4.50
2023-01-12T06:20:22.421Z,-4.40
2023-01-12T06:21:01.228Z,-4.40
2023-01-12T06:21:35.793Z,-4.50
2023-01-12T06:22:10.582Z,-4.50
2023-01-12T06:22:44.458Z,-4.50
2023-01-12T06:23:17.788Z,-4.50
2023-01-12T06:23:52.938Z,-4.50
2023-01-12T06:24:28.751Z,-4.50
2023-01-12T06:25:02.766Z,-4.50
2023-01-12T06:25:38.295Z,-4.50
2023-01-12T06:26:13.910Z,-4.50
2023-01-12T06:26:50.930Z,-4.50
2023-01-12T06:27:27.851Z,-4.50
2023-01-12T06:28:03.394Z,-4.50
2023-01-12T06:28:38.973Z,-4.50
2023-01-12T06:29:15.130Z,-4.40
2023-01-12T06:29:51.992Z,-4.40
2023-01-12T06:30:27.396Z,-4.40
2023-01-12T06:31:03.678Z,-4.40
2023-01-12T06:31:39.408Z,-4.40
2023-01-12T06:32:15.634Z,-4.30
2023-01-12T06:32:49.497Z,-4.30
2023-01-12T06:33:25.552Z,-4.30
2023-01-12T06:34:00.449Z,-4.30
2023-01-12T06:34:36.106Z,-4.30
2023-01-12T06:35:19.228Z,-4.40
2023-01-12T06:35:55.754Z,-4.40
2023-01-12T06:36:30.818Z,-4.40
2023-01-12T06:37:07.419Z,-4.40
2023-01-12T06:37:40.790Z,-4.40
2023-01-12T06:38:16.376Z,-4.50
2023-01-12T06:38:52.610Z,-4.50
2023-01-12T06:39:28.649Z,-4.50
2023-01-12T06:40:03.071Z,-4.50
2023-01-12T06:40:37.881Z,-4.50
2023-01-12T06:41:29.301Z,-4.50
2023-01-12T06:42:23.013Z,-4.50
2023-01-12T06:42:58.429Z,-4.50
2023-01-12T06:43:32.526Z,-4.50
2023-01-12T06:44:07.253Z,-4.50
2023-01-12T06:44:41.806Z,-4.50
2023-01-12T06:45:15.931Z,-4.50
2023-01-12T06:45:53.603Z,-4.50
2023-01-12T06:46:28.052Z,-4.60
2023-01-12T06:47:04.775Z,-4.60
2023-01-12T06:47:45.831Z,-4.60
2023-01-12T06:48:24.436Z,-4.60
2023-01-12T06:48:57.828Z,-4.60
2023-01-12T06:49:31.889Z,-4.60
2023-01-12T06:50:07.829Z,-4.50
2023-01-12T06:50:42.795Z,-4.50
2023-01-12T06:51:18.032Z,-4.40
2023-01-12T06:51:52.581Z,-4.40
2023-01-12T06:52:30.899Z,-4.40
2023-01-12T06:53:10.104Z,-4.40
2023-01-12T06:53:43.812Z,-4.30
2023-01-12T06:54:18.816Z,-4.30
2023-01-12T06:54:53.383Z,-4.30
2023-01-12T06:55:27.486Z,-4.20
2023-01-12T06:56:01.871Z,-4.20
2023-01-12T06:56:36.201Z,-4.20
2023-01-12T06:57:10.645Z,-4.10
2023-01-12T06:57:46.086Z,-4.10
2023-01-12T06:58:20.003Z,-4.10
2023-01-12T06:58:55.055Z,-4.10
2023-01-12T06:59:29.708Z,-4.10
2023-01-12T07:00:04.587Z,-4.10
2023-01-12T07:00:39.428Z,-4.10
2023-01-12T07:01:14.342Z,-4.10
2023-01-12T07:01:48.861Z,-4.10
2023-01-12T07:02:24.839Z,-4.10
2023-01-12T07:02:59.653Z,-4.10
2023-01-12T07:03:35.399Z,-4.10
2023-01-12T07:04:09.057Z,-4.10
2023-01-12T07:04:43.849Z,-4.10
2023-01-12T07:05:18.804Z,-4.20
2023-01-12T07:05:52.872Z,-4.20
2023-01-12T07:06:30.288Z,-4.20
2023-01-12T07:07:05.060Z,-4.20
2023-01-12T07:07:40.448Z,-4.30
2023-01-12T07:08:19.220Z,-4.30
2023-01-12T07:08:55.078Z,-4.30
2023-01-12T07:09:29.160Z,-4.30
2023-01-12T07:10:03.562Z,-4.30
2023-01-12T07:10:38.492Z,-4.30
2023-01-12T07:11:13.409Z,-4.30
2023-01-12T07:11:48.547Z,-4.30
2023-01-12T07:12:21.832Z,-4.20
2023-01-12T07:12:56.868Z,-4.20
2023-01-12T07:13:30.279Z,-4.20
2023-01-12T07:14:04.434Z,-4.20
2023-01-12T07:14:39.965Z,-4.20
2023-01-12T07:15:17.084Z,-4.20
2023-01-12T07:15:53.179Z,-4.20
2023-01-12T07:16:27.361Z,-4.20
2023-01-12T07:17:01.225Z,-4.10
2023-01-12T07:17:35.807Z,-4.10
2023-01-12T07:18:10.850Z,-4.10
2023-01-12T07:18:47.159Z,-4.00
2023-01-12T07:19:22.105Z,-4.00
2023-01-12T07:19:56.124Z,-3.90
2023-01-12T07:20:29.567Z,-3.90
2023-01-12T07:21:08.873Z,-3.90
2023-01-12T07:21:45.160Z,-3.90
2023-01-12T07:22:21.663Z,-3.80
2023-01-12T07:22:55.812Z,-3.80
2023-01-12T07:23:30.111Z,-3.80
2023-01-12T07:24:06.156Z,-3.80
2023-01-12T07:24:39.939Z,-3.70
2023-01-12T07:25:13.632Z,-3.70
2023-01-12T07:25:50.917Z,-3.70
2023-01-12T07:26:25.072Z,-3.70
2023-01-12T07:26:59.436Z,-3.60
2023-01-12T07:27:34.317Z,-3.50
2023-01-12T07:28:09.332Z,-3.40
2023-01-12T07:28:43.201Z,-3.30
2023-01-12T07:29:18.134Z,-3.30
2023-01-12T07:29:51.933Z,-3.20
2023-01-12T07:30:27.193Z,-3.10
2023-01-12T07:31:04.197Z,-3.00
2023-01-12T07:31:38.530Z,-2.80
2023-01-12T07:32:13.459Z,-2.70
2023-01-12T07:32:52.737Z,-2.50
2023-01-12T07:46:32.811Z,-1.60
2023-01-12T07:47:07.611Z,-1.50
2023-01-12T07:47:42.135Z,-1.30
2023-01-12T07:48:17.165Z,-1.10
2023-01-12T07:48:52.489Z,-1.00
2023-01-12T07:49:27.789Z,-0.90
2023-01-12T07:50:04.995Z,-0.80
2023-01-12T07:50:39.344Z,-0.70
2023-01-12T07:51:16.790Z,-0.60
2023-01-12T07:51:52.570Z,-0.60
2023-01-12T07:52:28.904Z,-0.50
2023-01-12T07:53:03.086Z,-0.50
2023-01-12T07:53:37.400Z,-0.40
2023-01-12T07:54:15.232Z,-0.40
2023-01-12T07:54:48.682Z,-0.40
2023-01-12T08:02:04.167Z,-0.20
2023-01-12T08:02:40.849Z,-0.30
2023-01-12T08:03:15.750Z,-0.30
2023-01-12T08:03:51.229Z,-0.40
2023-01-12T08:04:25.208Z,-0.50
2023-01-12T08:04:59.292Z,-0.60
2023-01-12T08:05:33.241Z,-0.70
2023-01-12T08:06:08.594Z,-0.80
2023-01-12T08:06:44.331Z,-0.80
2023-01-12T08:07:17.528Z,-0.90
2023-01-12T08:07:55.204Z,-0.90
2023-01-12T08:08:30.694Z,-1.00
2023-01-12T08:09:06.061Z,-1.10
2023-01-12T08:09:40.868Z,-1.20
2023-01-12T08:10:16.307Z,-1.30
2023-01-12T08:10:50.985Z,-1.30
2023-01-12T08:11:25.604Z,-1.30
2023-01-12T08:11:59.883Z,-1.30
2023-01-12T08:12:35.687Z,-1.40
2023-01-12T08:13:11.331Z,-1.40
2023-01-12T08:13:45.218Z,-1.30
2023-01-12T08:14:27.569Z,-1.40
2023-01-12T08:15:01.461Z,-1.40
2023-01-12T08:15:42.624Z,-1.40
2023-01-12T08:16:22.595Z,-1.40
2023-01-12T08:17:02.267Z,-1.50
2023-01-12T08:17:50.175Z,-1.60
2023-01-12T08:18:28.802Z,-1.60
2023-01-12T08:19:06.379Z,-1.70
2023-01-12T08:19:49.828Z,-1.80
2023-01-12T08:20:30.819Z,-1.90
2023-01-12T08:21:13.222Z,-1.90
2023-01-12T08:21:57.735Z,-1.90